createdAt,value
2017-11-14T00:00:19.472Z,81.5
2017-11-14T00:01:21.888Z,81.5
2017-11-14T00:02:24.322Z,81.5
2017-11-14T00:03:26.745Z,81.5
2017-11-14T00:04:29.521Z,81.5
2017-11-14T00:05:31.954Z,81.5
2017-11-14T00:06:34.381Z,81.6
2017-11-14T00:07:36.807Z,81.6
2017-11-14T00:08:39.233Z,81.7
2017-11-14T00:09:41.653Z,81.6
2017-11-14T00:10:44.142Z,81.6
2017-11-14T00:11:46.566Z,81.6
2017-11-14T00:12:48.970Z,81.5
2017-11-14T00:13:51.396Z,81.6
2017-11-14T00:14:53.809Z,81.5
2017-11-14T00:15:56.231Z,81.5
2017-11-14T00:16:58.656Z,81.6
2017-11-14T00:18:01.075Z,81.5
2017-11-14T00:19:03.499Z,81.5
2017-11-14T00:20:05.918Z,81.5
2017-11-14T00:21:08.335Z,81.5
2017-11-14T00:22:10.760Z,81.6
2017-11-14T00:23:13.182Z,81.6
2017-11-14T00:24:15.602Z,81.6
2017-11-14T00:25:18.025Z,81.5
2017-11-14T00:26:20.463Z,81.4
2017-11-14T00:27:22.892Z,81.5
2017-11-14T00:28:25.318Z,81.5
2017-11-14T00:29:27.742Z,81.5
2017-11-14T00:30:30.518Z,81.4
2017-11-14T00:31:32.949Z,81.4
2017-11-14T00:32:35.373Z,81.5
2017-11-14T00:33:37.805Z,81.4
2017-11-14T00:34:40.221Z,81.6
2017-11-14T00:35:42.640Z,81.5
2017-11-14T00:36:45.069Z,81.5
2017-11-14T00:37:47.492Z,81.4
2017-11-14T00:38:49.915Z,81.5
2017-11-14T00:39:52.331Z,81.5
2017-11-14T00:40:54.756Z,81.5
2017-11-14T00:41:57.172Z,81.4
2017-11-14T00:42:59.596Z,81.3
2017-11-14T00:44:02.009Z,81.3
2017-11-14T00:45:04.431Z,81.3
2017-11-14T00:46:06.866Z,81.3
2017-11-14T00:47:09.293Z,81.5
2017-11-14T00:48:11.711Z,81.5
2017-11-14T00:49:14.134Z,81.6
2017-11-14T00:50:16.569Z,81.7
2017-11-14T00:51:18.977Z,81.7
2017-11-14T00:52:21.393Z,81.7
2017-11-14T00:53:24.180Z,81.7
2017-11-14T00:54:26.593Z,81.7
2017-11-14T00:55:29.022Z,81.7
2017-11-14T00:56:31.443Z,81.7
2017-11-14T00:57:33.863Z,81.7
2017-11-14T00:58:36.285Z,81.7
2017-11-14T00:59:38.713Z,81.6
2017-11-14T01:00:41.129Z,81.6
2017-11-14T01:01:43.560Z,81.5
2017-11-14T01:02:45.971Z,81.4
2017-11-14T01:03:48.398Z,81.4
2017-11-14T01:04:51.179Z,81.4
2017-11-14T01:05:53.956Z,81.3
2017-11-14T01:06:56.730Z,81.2
2017-11-14T01:07:59.159Z,81.2
2017-11-14T01:09:01.564Z,81.3
2017-11-14T01:10:04.004Z,81.3
2017-11-14T01:11:06.426Z,81.3
2017-11-14T01:12:08.846Z,81.3
2017-11-14T01:13:11.275Z,81.4
2017-11-14T01:14:13.693Z,81.4
2017-11-14T01:15:16.105Z,81.3
2017-11-14T01:16:18.530Z,81.3
2017-11-14T01:17:20.954Z,81.3
2017-11-14T01:18:23.374Z,81.3
2017-11-14T01:19:25.776Z,81.4
2017-11-14T01:20:28.547Z,81.4
2017-11-14T01:21:30.974Z,81.4
2017-11-14T01:22:33.441Z,81.4
2017-11-14T01:23:36.231Z,81.3
2017-11-14T01:24:39.014Z,81.4
2017-11-14T01:25:41.440Z,81.4
2017-11-14T01:26:43.867Z,81.2
2017-11-14T01:27:46.280Z,81.3
2017-11-14T01:28:48.693Z,81.3
2017-11-14T01:29:51.474Z,81.3
2017-11-14T01:30:53.908Z,81.4
2017-11-14T01:31:56.330Z,81.4
2017-11-14T01:32:58.755Z,81.4
2017-11-14T01:34:01.171Z,81.3
2017-11-14T01:35:03.595Z,81.4
2017-11-14T01:36:06.022Z,81.4
2017-11-14T01:37:08.433Z,81.4
2017-11-14T01:38:10.847Z,81.4
2017-11-14T01:39:13.269Z,81.4
2017-11-14T01:40:16.072Z,81.5
2017-11-14T01:41:18.502Z,81.5
2017-11-14T01:42:20.933Z,81.6
2017-11-14T01:43:23.326Z,81.5
2017-11-14T01:44:25.755Z,81.5
2017-11-14T01:45:28.185Z,81.5
2017-11-14T01:46:30.955Z,81.5
2017-11-14T01:47:33.384Z,81.4
2017-11-14T01:48:35.812Z,81.5
2017-11-14T01:49:38.227Z,81.4
2017-11-14T01:50:40.655Z,81.4
2017-11-14T01:51:43.086Z,81.3
2017-11-14T01:52:45.499Z,81.5
2017-11-14T01:53:47.930Z,81.4
2017-11-14T01:54:50.337Z,81.4
2017-11-14T01:55:53.137Z,81.4
2017-11-14T01:56:55.554Z,81.4
2017-11-14T01:57:57.978Z,81.3
2017-11-14T01:59:00.753Z,81.2
2017-11-14T02:00:03.564Z,81.2
2017-11-14T02:01:05.969Z,81.2
2017-11-14T02:02:08.787Z,81.2
2017-11-14T02:03:11.195Z,81.3
2017-11-14T02:04:13.614Z,81.3
2017-11-14T02:05:16.040Z,81.3
2017-11-14T02:06:18.456Z,81.4
2017-11-14T02:07:20.863Z,81.5
2017-11-14T02:08:23.296Z,81.5
2017-11-14T02:09:25.710Z,81.6
2017-11-14T02:10:28.132Z,81.5
2017-11-14T02:11:30.559Z,81.6
2017-11-14T02:12:32.973Z,81.7
2017-11-14T02:13:35.391Z,81.7
2017-11-14T02:14:37.816Z,81.7
2017-11-14T02:15:40.220Z,81.7
2017-11-14T02:16:42.638Z,81.7
2017-11-14T02:17:45.066Z,81.8
2017-11-14T02:18:47.497Z,81.8
2017-11-14T02:19:49.922Z,81.9
2017-11-14T02:20:52.344Z,81.8
2017-11-14T02:21:54.768Z,81.7
2017-11-14T02:22:57.181Z,81.9
2017-11-14T02:23:59.603Z,81.9
2017-11-14T02:25:02.019Z,82
2017-11-14T02:26:04.420Z,82.1
2017-11-14T02:27:06.845Z,82.1
2017-11-14T02:28:09.274Z,82
2017-11-14T02:29:12.043Z,81.9
2017-11-14T02:30:14.465Z,81.9
2017-11-14T02:31:16.884Z,82.1
2017-11-14T02:32:19.292Z,82
2017-11-14T02:33:22.086Z,82
2017-11-14T02:34:24.511Z,81.8
2017-11-14T02:35:26.929Z,82
2017-11-14T02:36:29.352Z,81.9
2017-11-14T02:37:31.764Z,82
2017-11-14T02:38:34.917Z,82
2017-11-14T02:39:37.334Z,82
2017-11-14T02:40:39.745Z,82
2017-11-14T02:41:42.161Z,82.1
2017-11-14T02:42:44.954Z,82
2017-11-14T02:43:47.374Z,82
2017-11-14T02:44:50.177Z,82
2017-11-14T02:45:52.603Z,82
2017-11-14T02:46:55.031Z,82.1
2017-11-14T02:47:57.828Z,82
2017-11-14T02:49:00.250Z,82
2017-11-14T02:50:02.680Z,81.9
2017-11-14T02:51:05.462Z,82
2017-11-14T02:52:07.885Z,82
2017-11-14T02:53:10.312Z,82
2017-11-14T02:54:12.722Z,81.9
2017-11-14T02:55:15.140Z,82
2017-11-14T02:56:17.557Z,82
2017-11-14T02:57:19.970Z,82
2017-11-14T02:58:22.393Z,81.9
2017-11-14T02:59:24.822Z,82
2017-11-14T03:00:27.598Z,82
2017-11-14T03:01:30.013Z,82
2017-11-14T03:02:32.433Z,82
2017-11-14T03:03:35.212Z,81.9
2017-11-14T03:04:37.639Z,81.8
2017-11-14T03:05:40.063Z,81.8
2017-11-14T03:06:42.486Z,81.7
2017-11-14T03:07:44.915Z,81.7
2017-11-14T03:08:47.334Z,81.8
2017-11-14T03:09:49.750Z,81.7
2017-11-14T03:10:52.170Z,81.7
2017-11-14T03:11:54.583Z,81.7
2017-11-14T03:12:57.012Z,81.7
2017-11-14T03:13:59.430Z,81.7
2017-11-14T03:15:01.862Z,81.7
2017-11-14T03:16:04.272Z,81.7
2017-11-14T03:17:07.040Z,81.6
2017-11-14T03:18:09.469Z,81.6
2017-11-14T03:19:11.886Z,81.6
2017-11-14T03:20:14.296Z,81.7
2017-11-14T03:21:16.721Z,81.6
2017-11-14T03:22:19.490Z,81.6
2017-11-14T03:23:22.287Z,81.6
2017-11-14T03:24:24.711Z,81.7
2017-11-14T03:25:27.126Z,81.8
2017-11-14T03:26:29.553Z,81.9
2017-11-14T03:27:32.339Z,81.8
2017-11-14T03:28:34.764Z,81.8
2017-11-14T03:29:37.187Z,81.7
2017-11-14T03:30:39.608Z,81.8
2017-11-14T03:31:42.419Z,81.7
2017-11-14T03:32:44.843Z,81.8
2017-11-14T03:33:47.259Z,81.8
2017-11-14T03:34:50.043Z,81.9
2017-11-14T03:35:52.462Z,81.8
2017-11-14T03:36:55.244Z,81.8
2017-11-14T03:37:57.668Z,82
2017-11-14T03:39:00.084Z,81.8
2017-11-14T03:40:02.853Z,81.8
2017-11-14T03:41:05.280Z,82
2017-11-14T03:42:08.049Z,82.1
2017-11-14T03:43:10.835Z,82.2
2017-11-14T03:44:13.256Z,82.2
2017-11-14T03:45:15.690Z,82
2017-11-14T03:46:18.112Z,82.1
2017-11-14T03:47:20.532Z,82.2
2017-11-14T03:48:22.951Z,82.2
2017-11-14T03:49:25.389Z,82.3
2017-11-14T03:50:27.809Z,82.3
2017-11-14T03:51:30.592Z,82.3
2017-11-14T03:52:33.001Z,82.3
2017-11-14T03:53:35.416Z,82.2
2017-11-14T03:54:37.838Z,82.1
2017-11-14T03:55:40.254Z,82
2017-11-14T03:56:42.683Z,82.2
2017-11-14T03:57:45.097Z,82.2
2017-11-14T03:58:47.528Z,82.1
2017-11-14T03:59:49.929Z,82.2
2017-11-14T04:00:52.350Z,82.3
2017-11-14T04:01:54.771Z,82.3
2017-11-14T04:02:57.180Z,82.4
2017-11-14T04:03:59.616Z,82.3
2017-11-14T04:05:02.042Z,82.3
2017-11-14T04:06:04.455Z,82.2
2017-11-14T04:07:06.883Z,82.2
2017-11-14T04:08:09.305Z,82.2
2017-11-14T04:09:11.717Z,82.1
2017-11-14T04:10:14.144Z,82.3
2017-11-14T04:11:16.931Z,82.2
2017-11-14T04:12:19.345Z,82.1
2017-11-14T04:13:21.782Z,82
2017-11-14T04:14:24.233Z,81.9
2017-11-14T04:15:26.620Z,82.1
2017-11-14T04:16:29.038Z,82.1
2017-11-14T04:17:31.470Z,82.3
2017-11-14T04:18:33.892Z,82.4
2017-11-14T04:19:36.318Z,82.3
2017-11-14T04:20:38.736Z,82.3
2017-11-14T04:21:41.150Z,82.4
2017-11-14T04:22:43.562Z,82.2
2017-11-14T04:23:45.990Z,82.3
2017-11-14T04:24:48.755Z,82.4
2017-11-14T04:25:51.178Z,82.4
2017-11-14T04:26:53.959Z,82.4
2017-11-14T04:27:56.375Z,82.6
2017-11-14T04:28:58.794Z,82.5
2017-11-14T04:30:01.209Z,82.4
2017-11-14T04:31:03.624Z,82.3
2017-11-14T04:32:06.401Z,82.5
2017-11-14T04:33:08.834Z,82.5
2017-11-14T04:34:11.242Z,82.6
2017-11-14T04:35:13.666Z,82.7
2017-11-14T04:36:16.088Z,82.6
2017-11-14T04:37:18.519Z,82.5
2017-11-14T04:38:20.937Z,82.5
2017-11-14T04:39:23.714Z,82.5
2017-11-14T04:40:26.132Z,82.5
2017-11-14T04:41:28.553Z,82.5
2017-11-14T04:42:30.968Z,82.5
2017-11-14T04:43:33.393Z,82.5
2017-11-14T04:44:35.810Z,82.6
2017-11-14T04:45:38.229Z,82.7
2017-11-14T04:46:40.641Z,82.7
2017-11-14T04:47:43.056Z,82.7
2017-11-14T04:48:45.491Z,82.7
2017-11-14T04:49:47.900Z,82.6
2017-11-14T04:50:50.316Z,82.6
2017-11-14T04:51:52.739Z,82.5
2017-11-14T04:52:55.162Z,82.6
2017-11-14T04:53:57.587Z,82.6
2017-11-14T04:55:00.012Z,82.7
2017-11-14T04:56:02.427Z,82.7
2017-11-14T04:57:04.847Z,82.6
2017-11-14T04:58:07.273Z,82.6
2017-11-14T04:59:10.055Z,82.5
2017-11-14T05:00:12.482Z,82.6
2017-11-14T05:01:14.906Z,82.7
2017-11-14T05:02:17.344Z,82.7
2017-11-14T05:03:19.774Z,82.7
2017-11-14T05:04:22.179Z,82.7
2017-11-14T05:05:24.605Z,82.6
2017-11-14T05:06:27.018Z,82.6
2017-11-14T05:07:29.828Z,82.6
2017-11-14T05:08:32.247Z,82.7
2017-11-14T05:09:34.666Z,82.6
2017-11-14T05:10:37.069Z,82.5
2017-11-14T05:11:39.499Z,82.4
2017-11-14T05:12:41.924Z,82.4
2017-11-14T05:13:44.349Z,82.5
2017-11-14T05:14:46.754Z,82.4
2017-11-14T05:15:49.171Z,82.6
2017-11-14T05:16:51.584Z,82.6
2017-11-14T05:17:54.011Z,82.6
2017-11-14T05:18:56.420Z,82.5
2017-11-14T05:19:58.843Z,82.4
2017-11-14T05:21:01.263Z,82.4
2017-11-14T05:22:03.696Z,82.4
2017-11-14T05:23:06.119Z,82.4
2017-11-14T05:24:08.540Z,82.4
2017-11-14T05:25:10.963Z,82.4
2017-11-14T05:26:13.382Z,82.5
2017-11-14T05:27:15.795Z,82.4
2017-11-14T05:28:18.634Z,82.4
2017-11-14T05:29:21.400Z,82.5
2017-11-14T05:30:23.826Z,82.5
2017-11-14T05:31:26.249Z,82.5
2017-11-14T05:32:29.020Z,82.5
2017-11-14T05:33:31.442Z,82.5
2017-11-14T05:34:33.849Z,82.5
2017-11-14T05:35:36.251Z,82.4
2017-11-14T05:36:38.684Z,82.3
2017-11-14T05:37:41.104Z,82.4
2017-11-14T05:38:43.865Z,82.4
2017-11-14T05:39:46.287Z,82.3
2017-11-14T05:40:48.704Z,82.3
2017-11-14T05:41:51.839Z,82.4
2017-11-14T05:42:54.266Z,82.5
2017-11-14T05:43:56.689Z,82.4
2017-11-14T05:44:59.099Z,82.5
2017-11-14T05:46:01.524Z,82.4
2017-11-14T05:47:03.952Z,82.3
2017-11-14T05:48:06.365Z,82.4
2017-11-14T05:49:08.788Z,82.5
2017-11-14T05:50:11.209Z,82.6
2017-11-14T05:51:13.624Z,82.6
2017-11-14T05:52:16.053Z,82.6
2017-11-14T05:53:18.829Z,82.6
2017-11-14T05:54:21.248Z,82.7
2017-11-14T05:55:23.681Z,82.7
2017-11-14T05:56:26.101Z,82.5
2017-11-14T05:57:28.517Z,82.5
2017-11-14T05:58:30.936Z,82.5
2017-11-14T05:59:34.083Z,82.6
2017-11-14T06:00:36.517Z,82.7
2017-11-14T06:01:38.936Z,82.8
2017-11-14T06:02:41.696Z,82.8
2017-11-14T06:03:44.116Z,82.7
2017-11-14T06:04:46.552Z,82.8
2017-11-14T06:05:48.954Z,82.8
2017-11-14T06:06:51.378Z,82.8
2017-11-14T06:07:53.794Z,82.7
2017-11-14T06:08:56.221Z,82.8
2017-11-14T06:09:58.655Z,82.6
2017-11-14T06:11:01.078Z,82.6
2017-11-14T06:12:03.500Z,82.7
2017-11-14T06:13:05.912Z,82.7
2017-11-14T06:14:08.332Z,82.7
2017-11-14T06:15:10.752Z,82.7
2017-11-14T06:16:13.170Z,82.7
2017-11-14T06:17:15.597Z,82.8
2017-11-14T06:18:18.018Z,82.9
2017-11-14T06:19:20.429Z,82.9
2017-11-14T06:20:23.228Z,82.9
2017-11-14T06:21:25.636Z,82.9
2017-11-14T06:22:28.053Z,82.9
2017-11-14T06:23:30.815Z,83
2017-11-14T06:24:33.232Z,83
2017-11-14T06:25:36.006Z,83.1
2017-11-14T06:26:38.433Z,83.2
2017-11-14T06:27:40.839Z,83.2
2017-11-14T06:28:43.270Z,83.2
2017-11-14T06:29:45.687Z,83.2
2017-11-14T06:30:48.106Z,83.4
2017-11-14T06:31:50.532Z,83.3
2017-11-14T06:32:53.101Z,83.1
2017-11-14T06:33:55.872Z,83.3
2017-11-14T06:34:58.306Z,83.2
2017-11-14T06:36:00.714Z,83.3
2017-11-14T06:37:03.492Z,83.4
2017-11-14T06:38:05.914Z,83.4
2017-11-14T06:39:08.326Z,83.3
2017-11-14T06:40:10.753Z,83.4
2017-11-14T06:41:13.904Z,83.2
2017-11-14T06:42:16.320Z,83.1
2017-11-14T06:43:19.082Z,82.9
2017-11-14T06:44:21.506Z,83.1
2017-11-14T06:45:23.938Z,83.4
2017-11-14T06:46:26.355Z,83.4
2017-11-14T06:47:28.771Z,83.5
2017-11-14T06:48:31.188Z,83.5
2017-11-14T06:49:33.600Z,83.5
2017-11-14T06:50:36.027Z,83.5
2017-11-14T06:51:38.448Z,83.6
2017-11-14T06:52:40.846Z,83.7
2017-11-14T06:53:43.266Z,83.7
2017-11-14T06:54:45.678Z,83.6
2017-11-14T06:55:48.105Z,83.8
2017-11-14T06:56:50.528Z,83.6
2017-11-14T06:57:52.932Z,83.6
2017-11-14T06:58:55.344Z,83.8
2017-11-14T06:59:57.780Z,83.9
2017-11-14T07:01:00.196Z,83.9
2017-11-14T07:02:02.609Z,84.1
2017-11-14T07:03:05.031Z,84.4
2017-11-14T07:04:07.442Z,84.7
2017-11-14T07:05:09.862Z,84.7
2017-11-14T07:06:12.297Z,84.8
2017-11-14T07:07:14.689Z,85
2017-11-14T07:08:17.476Z,85.2
2017-11-14T07:09:19.886Z,85.2
2017-11-14T07:10:22.304Z,85.2
2017-11-14T07:11:25.073Z,85.3
2017-11-14T07:12:27.495Z,85.5
2017-11-14T07:13:29.918Z,85.8
2017-11-14T07:14:32.324Z,86
2017-11-14T07:15:35.101Z,86.1
2017-11-14T07:16:37.532Z,86.4
2017-11-14T07:17:39.938Z,86.5
2017-11-14T07:18:42.360Z,86.8
2017-11-14T07:19:44.794Z,87
2017-11-14T07:20:47.197Z,87.2
2017-11-14T07:21:49.613Z,87.4
2017-11-14T07:22:52.027Z,87.4
2017-11-14T07:23:54.803Z,87.6
2017-11-14T07:24:57.230Z,87.8
2017-11-14T07:25:59.653Z,88.1
2017-11-14T07:27:02.065Z,88.2
2017-11-14T07:28:04.476Z,88.4
2017-11-14T07:29:06.893Z,88.5
2017-11-14T07:30:09.323Z,88.6
2017-11-14T07:31:11.748Z,88.9
2017-11-14T07:32:14.163Z,89.1
2017-11-14T07:33:16.589Z,89.3
2017-11-14T07:34:19.013Z,89.5
2017-11-14T07:35:21.435Z,89.5
2017-11-14T07:36:24.215Z,89.6
2017-11-14T07:37:26.637Z,90
2017-11-14T07:38:29.047Z,90.1
2017-11-14T07:39:31.478Z,90.1
2017-11-14T07:40:34.262Z,90.1
2017-11-14T07:41:36.690Z,89.7
2017-11-14T07:42:39.454Z,88.9
2017-11-14T07:43:41.878Z,88.8
2017-11-14T07:44:44.301Z,88.8
2017-11-14T07:45:47.076Z,88.3
2017-11-14T07:46:49.483Z,88
2017-11-14T07:47:51.915Z,87.9
2017-11-14T07:48:54.317Z,88.1
2017-11-14T07:49:56.757Z,88
2017-11-14T07:50:59.167Z,88.1
2017-11-14T07:52:01.583Z,88
2017-11-14T07:53:04.012Z,87.7
2017-11-14T07:54:06.433Z,87.5
2017-11-14T07:55:08.842Z,87.1
2017-11-14T07:56:11.269Z,86.8
2017-11-14T07:57:13.684Z,86.4
2017-11-14T07:58:16.103Z,86.7
2017-11-14T07:59:18.541Z,86.4
2017-11-14T08:00:21.350Z,86.3
2017-11-14T08:01:23.774Z,86.2
2017-11-14T08:02:26.189Z,85.7
2017-11-14T08:03:28.604Z,85.7
2017-11-14T08:04:31.028Z,85.5
2017-11-14T08:05:33.447Z,85.3
2017-11-14T08:06:35.855Z,85.4
2017-11-14T08:07:38.285Z,85.2
2017-11-14T08:08:40.697Z,85.5
2017-11-14T08:09:43.473Z,85.4
2017-11-14T08:10:46.250Z,85.3
2017-11-14T08:11:48.676Z,84.9
2017-11-14T08:12:51.471Z,85.1
2017-11-14T08:13:53.880Z,85.1
2017-11-14T08:14:56.296Z,84.7
2017-11-14T08:15:58.724Z,84.7
2017-11-14T08:17:01.141Z,84.8
2017-11-14T08:18:03.555Z,84.7
2017-11-14T08:19:05.974Z,84.9
2017-11-14T08:20:08.395Z,85.2
2017-11-14T08:21:10.825Z,85.2
2017-11-14T08:22:13.282Z,85.2
2017-11-14T08:23:15.649Z,85.4
2017-11-14T08:24:18.070Z,85.5
2017-11-14T08:25:20.495Z,85.3
2017-11-14T08:26:22.910Z,85.5
2017-11-14T08:27:25.337Z,85.6
2017-11-14T08:28:27.760Z,85.8
2017-11-14T08:29:30.180Z,85.9
2017-11-14T08:30:32.594Z,85.7
2017-11-14T08:31:35.008Z,85.7
2017-11-14T08:32:37.787Z,85.9
2017-11-14T08:33:40.216Z,85.8
2017-11-14T08:34:42.629Z,86
2017-11-14T08:35:45.054Z,86
2017-11-14T08:36:47.475Z,85.8
2017-11-14T08:37:49.897Z,85.7
2017-11-14T08:38:52.324Z,85.4
2017-11-14T08:39:54.747Z,85.5
2017-11-14T08:40:57.520Z,85.5
2017-11-14T08:42:00.324Z,85.7
2017-11-14T08:43:02.735Z,85.8
2017-11-14T08:44:05.159Z,85.7
2017-11-14T08:45:07.568Z,85.7
2017-11-14T08:46:09.986Z,85.9
2017-11-14T08:47:12.415Z,85.6
2017-11-14T08:48:14.832Z,84.9
2017-11-14T08:49:17.259Z,85.1
2017-11-14T08:50:19.681Z,85.2
2017-11-14T08:51:22.099Z,85.3
2017-11-14T08:52:24.519Z,85.3
2017-11-14T08:53:26.941Z,85.2
2017-11-14T08:54:29.352Z,85.5
2017-11-14T08:55:31.776Z,85.4
2017-11-14T08:56:34.206Z,85.6
2017-11-14T08:57:36.606Z,85.6
2017-11-14T08:58:39.043Z,85.2
2017-11-14T08:59:41.462Z,85
2017-11-14T09:00:43.874Z,84.8
2017-11-14T09:01:46.294Z,84.8
2017-11-14T09:02:48.716Z,85.2
2017-11-14T09:03:51.136Z,85.4
2017-11-14T09:04:53.570Z,85.5
2017-11-14T09:05:56.342Z,85.2
2017-11-14T09:06:58.758Z,85.2
2017-11-14T09:08:01.188Z,85.4
2017-11-14T09:09:03.967Z,85.6
2017-11-14T09:10:06.379Z,85.7
2017-11-14T09:11:08.808Z,85.9
2017-11-14T09:12:11.212Z,85.9
2017-11-14T09:13:13.634Z,86.1
2017-11-14T09:14:16.050Z,86.4
2017-11-14T09:15:18.470Z,86.2
2017-11-14T09:16:20.897Z,86.4
2017-11-14T09:17:23.309Z,86.6
2017-11-14T09:18:25.724Z,86.4
2017-11-14T09:19:28.151Z,86
2017-11-14T09:20:30.930Z,86
2017-11-14T09:21:33.356Z,86.4
2017-11-14T09:22:35.771Z,86.5
2017-11-14T09:23:38.537Z,86.4
2017-11-14T09:24:40.956Z,86.1
2017-11-14T09:25:43.374Z,86.2
2017-11-14T09:26:45.784Z,86.5
2017-11-14T09:27:48.209Z,86.2
2017-11-14T09:28:50.626Z,85.9
2017-11-14T09:29:53.052Z,86.1
2017-11-14T09:30:55.475Z,86
2017-11-14T09:31:58.245Z,85.8
2017-11-14T09:33:00.676Z,85.5
2017-11-14T09:34:03.461Z,85.3
2017-11-14T09:35:06.233Z,85.2
2017-11-14T09:36:09.013Z,85
2017-11-14T09:37:11.777Z,84.7
2017-11-14T09:38:14.220Z,84.8
2017-11-14T09:39:16.617Z,85
2017-11-14T09:40:19.031Z,85
2017-11-14T09:41:21.447Z,85.1
2017-11-14T09:42:23.868Z,85
2017-11-14T09:43:26.289Z,85.2
2017-11-14T09:44:28.716Z,85.2
2017-11-14T09:45:31.137Z,84.7
2017-11-14T09:46:33.557Z,84.7
2017-11-14T09:47:36.341Z,84.9
2017-11-14T09:48:38.764Z,84.8
2017-11-14T09:49:41.545Z,84.8
2017-11-14T09:50:43.969Z,84.6
2017-11-14T09:51:46.384Z,84.6
2017-11-14T09:52:48.812Z,84
2017-11-14T09:53:51.233Z,84.1
2017-11-14T09:54:54.377Z,84.2
2017-11-14T09:55:56.801Z,84.5
2017-11-14T09:56:59.228Z,84.3
2017-11-14T09:58:01.637Z,84.3
2017-11-14T09:59:04.066Z,84.2
2017-11-14T10:00:06.501Z,83.8
2017-11-14T10:01:08.922Z,84.2
2017-11-14T10:02:11.345Z,84.3
2017-11-14T10:03:13.759Z,84.5
2017-11-14T10:04:16.544Z,84.4
2017-11-14T10:05:18.981Z,84.3
2017-11-14T10:06:21.402Z,84.5
2017-11-14T10:07:23.817Z,83.8
2017-11-14T10:08:26.243Z,83.6
2017-11-14T10:09:28.671Z,83.4
2017-11-14T10:10:31.080Z,83.5
2017-11-14T10:11:33.499Z,83.7
2017-11-14T10:12:35.934Z,83.8
2017-11-14T10:13:38.355Z,83.5
2017-11-14T10:14:40.782Z,83.6
2017-11-14T10:15:43.229Z,83.5
2017-11-14T10:16:45.673Z,83.8
2017-11-14T10:17:48.104Z,83.8
2017-11-14T10:18:50.531Z,83.9
2017-11-14T10:19:52.939Z,83.9
2017-11-14T10:20:55.372Z,83.8
2017-11-14T10:21:58.174Z,83.7
2017-11-14T10:23:00.600Z,83.8
2017-11-14T10:24:03.020Z,83.9
2017-11-14T10:25:05.439Z,83.9
2017-11-14T10:26:07.866Z,83.8
2017-11-14T10:27:10.291Z,83.9
2017-11-14T10:28:12.713Z,84
2017-11-14T10:29:15.141Z,84
2017-11-14T10:30:17.556Z,83.6
2017-11-14T10:32:11.643Z,83.7
2017-11-14T10:33:14.016Z,83.6
2017-11-14T10:34:16.385Z,83.6
2017-11-14T10:35:18.752Z,83.6
2017-11-14T10:36:21.125Z,83.5
2017-11-14T10:37:23.491Z,83.6
2017-11-14T10:38:25.864Z,83.1
2017-11-14T10:39:28.231Z,83.3
2017-11-14T10:40:30.595Z,83.7
2017-11-14T10:41:32.961Z,84
2017-11-14T10:42:35.329Z,84.3
2017-11-14T10:43:37.699Z,84.1
2017-11-14T10:44:40.432Z,84.1
2017-11-14T10:45:42.805Z,84
2017-11-14T10:46:45.168Z,82.8
2017-11-14T10:47:47.544Z,84
2017-11-14T10:48:49.902Z,83
2017-11-14T10:49:52.270Z,82.9
2017-11-14T10:50:54.636Z,82.7
2017-11-14T10:51:57.002Z,82.8
2017-11-14T10:52:59.369Z,82.8
2017-11-14T10:54:01.744Z,82.9
2017-11-14T10:55:04.108Z,82.8
2017-11-14T10:56:06.492Z,83
2017-11-14T10:57:09.201Z,83.1
2017-11-14T10:58:11.569Z,83.2
2017-11-14T10:59:13.943Z,82.9
2017-11-14T11:00:16.310Z,82.7
2017-11-14T11:01:18.667Z,82.7
2017-11-14T11:02:21.042Z,82.7
2017-11-14T11:03:23.395Z,82.7
2017-11-14T11:04:26.131Z,82.7
2017-11-14T11:05:28.502Z,82.6
2017-11-14T11:06:30.865Z,82.4
2017-11-14T11:07:33.235Z,82.3
2017-11-14T11:08:35.606Z,82
2017-11-14T11:09:37.964Z,82.1
2017-11-14T11:10:40.331Z,82.3
2017-11-14T11:11:42.708Z,82.3
2017-11-14T11:12:45.435Z,82.3
2017-11-14T11:13:47.810Z,82.3
2017-11-14T11:14:50.169Z,82.4
2017-11-14T11:15:52.536Z,82.7
2017-11-14T11:16:54.898Z,82.5
2017-11-14T11:17:57.267Z,82.2
2017-11-14T11:18:59.637Z,82.3
2017-11-14T11:20:01.991Z,82.1
2017-11-14T11:21:04.358Z,82.2
2017-11-14T11:22:06.737Z,82.4
2017-11-14T11:23:09.105Z,82.4
2017-11-14T11:24:11.477Z,82.3
2017-11-14T11:25:14.213Z,82
2017-11-14T11:26:16.571Z,82.2
2017-11-14T11:27:18.952Z,82.1
2017-11-14T11:28:21.316Z,82
2017-11-14T11:29:23.680Z,82.2
2017-11-14T11:30:26.053Z,82.3
2017-11-14T11:31:28.416Z,82.2
2017-11-14T11:32:30.784Z,82.2
2017-11-14T11:33:33.516Z,82.2
2017-11-14T11:34:35.877Z,82.4
2017-11-14T11:35:38.240Z,82.3
2017-11-14T11:36:40.616Z,82
2017-11-14T11:37:42.983Z,82
2017-11-14T11:38:45.343Z,82.1
2017-11-14T11:39:47.712Z,82.3
2017-11-14T11:40:50.082Z,82.3
2017-11-14T11:41:52.467Z,82.3
2017-11-14T11:42:55.208Z,82
2017-11-14T11:43:57.563Z,82.1
2017-11-14T11:45:00.284Z,82.1
2017-11-14T11:46:02.656Z,82.2
2017-11-14T11:47:05.021Z,82.4
2017-11-14T11:48:07.387Z,82.4
2017-11-14T11:49:09.748Z,82.3
2017-11-14T11:50:12.115Z,82.4
2017-11-14T11:51:14.493Z,82.3
2017-11-14T11:52:16.864Z,82
2017-11-14T11:53:19.241Z,82.1
2017-11-14T11:54:21.622Z,82.2
2017-11-14T11:55:23.975Z,82.3
2017-11-14T11:56:26.349Z,82
2017-11-14T11:57:28.722Z,82.1
2017-11-14T11:58:31.082Z,82.2
2017-11-14T11:59:33.457Z,82
2017-11-14T12:00:36.184Z,82.1
2017-11-14T12:01:38.547Z,82.1
2017-11-14T12:02:40.932Z,82.2
2017-11-14T12:03:43.300Z,81.9
2017-11-14T12:04:45.670Z,82.2
2017-11-14T12:05:48.048Z,82.3
2017-11-14T12:06:50.416Z,82.3
2017-11-14T12:07:52.785Z,82.1
2017-11-14T12:08:55.147Z,82.1
2017-11-14T12:09:57.525Z,81.8
2017-11-14T12:10:59.893Z,81.7
2017-11-14T12:12:02.264Z,81.8
2017-11-14T12:13:04.626Z,82
2017-11-14T12:14:06.995Z,81.6
2017-11-14T12:15:09.357Z,81.7
2017-11-14T12:16:11.732Z,81.9
2017-11-14T12:17:14.091Z,81.9
2017-11-14T12:18:16.462Z,81.8
2017-11-14T12:19:18.831Z,81.9
2017-11-14T12:20:21.209Z,81.6
2017-11-14T12:21:23.572Z,81.7
2017-11-14T12:22:25.941Z,81.9
2017-11-14T12:23:28.310Z,81.6
2017-11-14T12:24:30.684Z,81.6
2017-11-14T12:25:33.060Z,81.7
2017-11-14T12:26:35.422Z,81.9
2017-11-14T12:27:37.802Z,82.1
2017-11-14T12:28:40.178Z,81.8
2017-11-14T12:29:42.541Z,81.8
2017-11-14T12:31:29.756Z,81.8
2017-11-14T12:32:32.132Z,81.9
2017-11-14T12:33:34.506Z,81.7
2017-11-14T12:34:37.212Z,81.7
2017-11-14T12:35:39.592Z,81.8
2017-11-14T12:36:41.958Z,81.9
2017-11-14T12:37:44.336Z,81.9
2017-11-14T12:38:47.057Z,82.3
2017-11-14T12:39:49.425Z,82.3
2017-11-14T12:40:51.788Z,82.1
2017-11-14T12:41:54.160Z,81.9
2017-11-14T12:42:56.530Z,81.7
2017-11-14T12:43:58.898Z,81.8
2017-11-14T12:45:01.271Z,81.5
2017-11-14T12:46:03.638Z,81.6
2017-11-14T12:47:06.370Z,81.7
2017-11-14T12:48:08.745Z,81.8
2017-11-14T12:49:11.114Z,81.6
2017-11-14T12:50:13.490Z,81.7
2017-11-14T12:51:15.855Z,81.7
2017-11-14T12:52:18.226Z,81.8
2017-11-14T12:53:20.604Z,81.5
2017-11-14T12:54:23.326Z,81.5
2017-11-14T12:55:25.692Z,81.4
2017-11-14T12:56:28.063Z,81.4
2017-11-14T12:57:30.707Z,81.5
2017-11-14T12:58:33.091Z,81.8
2017-11-14T12:59:35.461Z,81.7
2017-11-14T13:00:38.109Z,81.7
2017-11-14T13:01:40.473Z,81.6
2017-11-14T13:02:42.837Z,81.5
2017-11-14T13:03:45.213Z,81.5
2017-11-14T13:04:47.585Z,81.2
2017-11-14T13:05:49.951Z,81.6
2017-11-14T13:06:52.326Z,81.7
2017-11-14T13:07:54.705Z,81.5
2017-11-14T13:08:57.059Z,81.7
2017-11-14T13:09:59.440Z,81.3
2017-11-14T13:11:01.803Z,81.2
2017-11-14T13:12:04.175Z,81.4
2017-11-14T13:13:06.546Z,81.6
2017-11-14T13:14:08.919Z,81.7
2017-11-14T13:15:11.296Z,81.7
2017-11-14T13:16:13.664Z,81.8
2017-11-14T13:17:16.041Z,81.5
2017-11-14T13:18:18.421Z,81.7
2017-11-14T13:19:20.788Z,81.7
2017-11-14T13:20:23.160Z,81.7
2017-11-14T13:21:25.816Z,81.5
2017-11-14T13:22:28.189Z,81.4
2017-11-14T13:23:30.565Z,81.1
2017-11-14T13:24:32.938Z,81.1
2017-11-14T13:25:35.306Z,81.2
2017-11-14T13:26:37.688Z,80.7
2017-11-14T13:27:40.335Z,80.5
2017-11-14T13:28:42.709Z,80.6
2017-11-14T13:29:45.085Z,80.9
2017-11-14T13:30:47.456Z,80.6
2017-11-14T13:31:49.820Z,80.7
2017-11-14T13:32:52.483Z,80.5
2017-11-14T13:33:55.409Z,80.5
2017-11-14T13:34:57.787Z,80.7
2017-11-14T13:36:00.161Z,80.5
2017-11-14T13:37:02.527Z,80.9
2017-11-14T13:38:04.896Z,81
2017-11-14T13:39:07.266Z,80.9
2017-11-14T13:40:09.943Z,81.2
2017-11-14T13:41:12.607Z,81.4
2017-11-14T13:42:14.984Z,80.9
2017-11-14T13:43:17.912Z,80.5
2017-11-14T13:44:20.275Z,80.5
2017-11-14T13:45:22.652Z,80.5
2017-11-14T13:46:25.022Z,80.5
2017-11-14T13:47:27.389Z,80.8
2017-11-14T13:48:29.755Z,80.9
2017-11-14T13:49:32.126Z,80.9
2017-11-14T13:50:34.508Z,80.8
2017-11-14T13:51:36.871Z,80.8
2017-11-14T13:52:39.230Z,81.1
2017-11-14T13:53:41.599Z,81.2
2017-11-14T13:54:43.973Z,81.2
2017-11-14T13:55:46.348Z,81.2
2017-11-14T13:56:48.708Z,81.2
2017-11-14T13:57:51.372Z,81.3